This is the latest recevied weather packets stored in our database for station/object SQ9RHX-11. If no packets are shown the sender has not sent any weather packets the latest 10 day(s).
| Time | Temp. | Humidity | Pressure | Rain* | Wind** | Luminosity | Snow |
|---|---|---|---|---|---|---|---|
| 1788176301 | 17.78° C | 90% | 1016.1 hPa | - | - | - | - |
| 1788174501 | 17.78° C | 89% | 1015.4 hPa | - | - | - | - |
| 1788172702 | 16.67° C | 87% | 1015.7 hPa | - | - | - | - |
| 1788170902 | 16.11° C | 86% | 1017 hPa | - | - | - | - |
| 1788169103 | 18.33° C | 77% | 1017.3 hPa | - | - | - | - |
| 1788167303 | 20.56° C | 69% | 1015.2 hPa | - | - | - | - |
| 1788165503 | 21.11° C | 67% | 1015 hPa | - | - | - | - |
| 1788163703 | 21.67° C | 63% | 1014.8 hPa | - | - | - | - |
| 1788161903 | 22.22° C | 64% | 1015.1 hPa | - | - | - | - |
| 1788160103 | 21.67° C | 66% | 1015.1 hPa | - | - | - | - |
| 1788158303 | 21.11° C | 72% | 1015.2 hPa | - | - | - | - |
| 1788156504 | 20° C | 81% | 1015.2 hPa | - | - | - | - |
| 1788154705 | 17.22° C | 87% | 1015.1 hPa | - | - | - | - |
| 1788152903 | 12.78° C | 88% | 1015.3 hPa | - | - | - | - |
| 1788151104 | 12.22° C | 88% | 1015.2 hPa | - | - | - | - |
| 1788149305 | 12.22° C | 88% | 1015.3 hPa | - | - | - | - |
| 1788147505 | 12.22° C | 87% | 1015.3 hPa | - | - | - | - |
| 1788145706 | 12.22° C | 86% | 1015.6 hPa | - | - | - | - |
| 1788143907 | 12.22° C | 86% | 1015.6 hPa | - | - | - | - |
| 1788142107 | 12.78° C | 85% | 1015.7 hPa | - | - | - | - |
| 1788140307 | 13.33° C | 86% | 1015.7 hPa | - | - | - | - |
| 1788138507 | 13.33° C | 85% | 1015.7 hPa | - | - | - | - |
| 1788136707 | 13.33° C | 84% | 1015.7 hPa | - | - | - | - |
| 1788134908 | 13.89° C | 83% | 1015.9 hPa | - | - | - | - |
| 1788133108 | 14.44° C | 82% | 1015.9 hPa | - | - | - | - |
* Rain since midnight (hover to see other rain measurements)
** Current wind speed in m/s (hover to see current wind gust speed)